sensor_id;sensor_type;location;lat;lon;timestamp;temperature;humidity
921;DHT22;447;51.332;6.778;2022-07-15T00:00:11;26.10;59.40
921;DHT22;447;51.332;6.778;2022-07-15T00:02:41;26.10;59.40
921;DHT22;447;51.332;6.778;2022-07-15T00:05:08;26.10;59.50
921;DHT22;447;51.332;6.778;2022-07-15T00:07:37;26.10;59.40
921;DHT22;447;51.332;6.778;2022-07-15T00:10:04;26.00;59.40
921;DHT22;447;51.332;6.778;2022-07-15T00:12:51;26.00;59.40
921;DHT22;447;51.332;6.778;2022-07-15T00:15:19;26.00;59.40
921;DHT22;447;51.332;6.778;2022-07-15T00:17:45;25.90;59.40
921;DHT22;447;51.332;6.778;2022-07-15T00:20:19;25.90;59.50
921;DHT22;447;51.332;6.778;2022-07-15T00:22:50;25.90;59.50
921;DHT22;447;51.332;6.778;2022-07-15T00:25:18;25.90;59.60
921;DHT22;447;51.332;6.778;2022-07-15T00:27:57;25.90;59.60
921;DHT22;447;51.332;6.778;2022-07-15T00:30:31;25.90;59.60
921;DHT22;447;51.332;6.778;2022-07-15T00:33:00;25.90;59.70
921;DHT22;447;51.332;6.778;2022-07-15T00:35:27;25.90;59.70
921;DHT22;447;51.332;6.778;2022-07-15T00:37:53;25.80;59.70
921;DHT22;447;51.332;6.778;2022-07-15T00:40:22;25.80;59.80
921;DHT22;447;51.332;6.778;2022-07-15T00:42:49;25.80;59.80
921;DHT22;447;51.332;6.778;2022-07-15T00:45:23;25.80;59.80
921;DHT22;447;51.332;6.778;2022-07-15T00:47:57;25.70;59.80
921;DHT22;447;51.332;6.778;2022-07-15T00:50:27;25.70;59.80
921;DHT22;447;51.332;6.778;2022-07-15T00:52:56;25.70;59.80
921;DHT22;447;51.332;6.778;2022-07-15T00:55:24;25.70;59.90
921;DHT22;447;51.332;6.778;2022-07-15T00:57:55;25.60;59.80
921;DHT22;447;51.332;6.778;2022-07-15T01:00:22;25.60;59.80
921;DHT22;447;51.332;6.778;2022-07-15T01:02:55;25.60;59.90
921;DHT22;447;51.332;6.778;2022-07-15T01:05:25;25.60;59.90
921;DHT22;447;51.332;6.778;2022-07-15T01:07:52;25.60;59.90
921;DHT22;447;51.332;6.778;2022-07-15T01:10:25;25.60;60.70
921;DHT22;447;51.332;6.778;2022-07-15T01:12:52;25.50;59.90
921;DHT22;447;51.332;6.778;2022-07-15T01:15:28;25.50;59.90
921;DHT22;447;51.332;6.778;2022-07-15T01:18:03;25.50;60.00
921;DHT22;447;51.332;6.778;2022-07-15T01:20:32;25.50;60.00
921;DHT22;447;51.332;6.778;2022-07-15T01:23:02;25.40;59.90
921;DHT22;447;51.332;6.778;2022-07-15T01:25:39;25.40;60.00
921;DHT22;447;51.332;6.778;2022-07-15T01:28:13;25.40;60.00
921;DHT22;447;51.332;6.778;2022-07-15T01:30:44;25.40;60.00
921;DHT22;447;51.332;6.778;2022-07-15T01:33:16;25.40;60.10
921;DHT22;447;51.332;6.778;2022-07-15T01:35:47;25.40;60.10
921;DHT22;447;51.332;6.778;2022-07-15T01:38:16;25.30;60.10
921;DHT22;447;51.332;6.778;2022-07-15T01:40:42;25.30;60.10
921;DHT22;447;51.332;6.778;2022-07-15T01:43:12;25.30;60.20
921;DHT22;447;51.332;6.778;2022-07-15T01:45:42;25.30;60.20
921;DHT22;447;51.332;6.778;2022-07-15T01:48:13;25.30;60.20
921;DHT22;447;51.332;6.778;2022-07-15T01:51:14;25.20;60.20
921;DHT22;447;51.332;6.778;2022-07-15T01:53:48;25.20;60.30
921;DHT22;447;51.332;6.778;2022-07-15T01:56:14;25.20;60.30
921;DHT22;447;51.332;6.778;2022-07-15T01:58:40;25.20;60.30
921;DHT22;447;51.332;6.778;2022-07-15T02:01:08;25.20;60.30
921;DHT22;447;51.332;6.778;2022-07-15T02:03:34;25.20;60.40
921;DHT22;447;51.332;6.778;2022-07-15T02:06:00;25.20;60.40
921;DHT22;447;51.332;6.778;2022-07-15T02:08:27;25.10;60.30
921;DHT22;447;51.332;6.778;2022-07-15T02:10:57;25.10;60.40
921;DHT22;447;51.332;6.778;2022-07-15T02:13:23;25.10;60.50
921;DHT22;447;51.332;6.778;2022-07-15T02:15:56;25.10;60.50
921;DHT22;447;51.332;6.778;2022-07-15T02:18:22;25.10;60.60
921;DHT22;447;51.332;6.778;2022-07-15T02:20:50;25.00;60.50
921;DHT22;447;51.332;6.778;2022-07-15T02:23:21;25.00;60.60
921;DHT22;447;51.332;6.778;2022-07-15T02:25:47;25.00;60.60
921;DHT22;447;51.332;6.778;2022-07-15T02:28:13;25.00;60.70
921;DHT22;447;51.332;6.778;2022-07-15T02:30:40;25.00;60.70
921;DHT22;447;51.332;6.778;2022-07-15T02:33:09;25.00;60.70
921;DHT22;447;51.332;6.778;2022-07-15T02:35:36;24.90;60.70
921;DHT22;447;51.332;6.778;2022-07-15T02:38:06;24.90;60.80
921;DHT22;447;51.332;6.778;2022-07-15T02:40:35;24.90;60.80
921;DHT22;447;51.332;6.778;2022-07-15T02:43:04;24.90;60.80
921;DHT22;447;51.332;6.778;2022-07-15T02:45:37;24.90;60.90
921;DHT22;447;51.332;6.778;2022-07-15T02:48:08;24.90;61.00
921;DHT22;447;51.332;6.778;2022-07-15T02:50:41;24.90;61.00
921;DHT22;447;51.332;6.778;2022-07-15T02:53:08;24.90;61.00
921;DHT22;447;51.332;6.778;2022-07-15T02:55:37;24.80;61.00
921;DHT22;447;51.332;6.778;2022-07-15T02:58:03;24.80;61.10
921;DHT22;447;51.332;6.778;2022-07-15T03:00:30;24.80;61.10
921;DHT22;447;51.332;6.778;2022-07-15T03:03:02;24.80;61.10
921;DHT22;447;51.332;6.778;2022-07-15T03:05:28;24.80;61.20
921;DHT22;447;51.332;6.778;2022-07-15T03:07:55;24.70;61.10
921;DHT22;447;51.332;6.778;2022-07-15T03:10:22;24.70;61.20
921;DHT22;447;51.332;6.778;2022-07-15T03:12:50;24.70;61.20
921;DHT22;447;51.332;6.778;2022-07-15T03:15:18;24.70;61.30
921;DHT22;447;51.332;6.778;2022-07-15T03:17:48;24.70;61.30
921;DHT22;447;51.332;6.778;2022-07-15T03:20:14;24.70;61.40
921;DHT22;447;51.332;6.778;2022-07-15T03:22:49;24.60;61.30
921;DHT22;447;51.332;6.778;2022-07-15T03:25:15;24.70;61.50
921;DHT22;447;51.332;6.778;2022-07-15T03:27:41;24.60;61.40
921;DHT22;447;51.332;6.778;2022-07-15T03:30:10;24.60;61.50
921;DHT22;447;51.332;6.778;2022-07-15T03:32:37;24.60;61.50
921;DHT22;447;51.332;6.778;2022-07-15T03:35:06;24.50;61.40
921;DHT22;447;51.332;6.778;2022-07-15T03:37:39;24.50;61.50
921;DHT22;447;51.332;6.778;2022-07-15T03:40:06;24.50;61.70
921;DHT22;447;51.332;6.778;2022-07-15T03:42:37;24.50;61.60
921;DHT22;447;51.332;6.778;2022-07-15T03:45:04;24.50;61.60
921;DHT22;447;51.332;6.778;2022-07-15T03:47:31;24.40;61.60
921;DHT22;447;51.332;6.778;2022-07-15T03:50:01;24.40;61.50
921;DHT22;447;51.332;6.778;2022-07-15T03:52:30;24.40;61.60
921;DHT22;447;51.332;6.778;2022-07-15T03:55:00;24.40;61.70
921;DHT22;447;51.332;6.778;2022-07-15T03:57:28;24.40;61.70
921;DHT22;447;51.332;6.778;2022-07-15T03:59:54;24.40;61.80
921;DHT22;447;51.332;6.778;2022-07-15T04:02:20;24.30;61.70
921;DHT22;447;51.332;6.778;2022-07-15T04:04:51;24.30;61.70
921;DHT22;447;51.332;6.778;2022-07-15T04:07:18;24.30;61.70
921;DHT22;447;51.332;6.778;2022-07-15T04:09:44;24.30;61.80
921;DHT22;447;51.332;6.778;2022-07-15T04:12:16;24.30;61.80
921;DHT22;447;51.332;6.778;2022-07-15T04:14:44;24.20;61.80
921;DHT22;447;51.332;6.778;2022-07-15T04:17:10;24.20;61.80
921;DHT22;447;51.332;6.778;2022-07-15T04:19:39;24.20;61.80
921;DHT22;447;51.332;6.778;2022-07-15T04:22:05;24.20;61.90
921;DHT22;447;51.332;6.778;2022-07-15T04:24:38;24.20;61.90
921;DHT22;447;51.332;6.778;2022-07-15T04:27:05;24.20;61.90
921;DHT22;447;51.332;6.778;2022-07-15T04:29:34;24.20;61.90
921;DHT22;447;51.332;6.778;2022-07-15T04:32:02;24.10;61.90
921;DHT22;447;51.332;6.778;2022-07-15T04:34:34;24.10;61.90
921;DHT22;447;51.332;6.778;2022-07-15T04:37:00;24.10;62.00
921;DHT22;447;51.332;6.778;2022-07-15T04:39:29;24.10;62.00
921;DHT22;447;51.332;6.778;2022-07-15T04:41:57;24.10;62.00
921;DHT22;447;51.332;6.778;2022-07-15T04:44:25;24.10;62.10
921;DHT22;447;51.332;6.778;2022-07-15T04:46:51;24.00;62.00
921;DHT22;447;51.332;6.778;2022-07-15T04:49:28;24.10;62.20
921;DHT22;447;51.332;6.778;2022-07-15T04:52:15;24.00;62.10
921;DHT22;447;51.332;6.778;2022-07-15T04:54:44;24.00;62.10
921;DHT22;447;51.332;6.778;2022-07-15T04:57:10;24.00;62.20
921;DHT22;447;51.332;6.778;2022-07-15T04:59:40;24.00;62.30
921;DHT22;447;51.332;6.778;2022-07-15T05:02:12;24.00;62.30
921;DHT22;447;51.332;6.778;2022-07-15T05:04:41;23.90;62.20
921;DHT22;447;51.332;6.778;2022-07-15T05:07:09;23.90;62.30
921;DHT22;447;51.332;6.778;2022-07-15T05:09:38;23.90;62.40
921;DHT22;447;51.332;6.778;2022-07-15T05:12:05;23.90;62.40
921;DHT22;447;51.332;6.778;2022-07-15T05:14:45;23.90;62.40
921;DHT22;447;51.332;6.778;2022-07-15T05:17:11;23.90;62.50
921;DHT22;447;51.332;6.778;2022-07-15T05:19:37;23.90;62.60
921;DHT22;447;51.332;6.778;2022-07-15T05:22:06;23.80;62.50
921;DHT22;447;51.332;6.778;2022-07-15T05:24:33;23.80;62.50
921;DHT22;447;51.332;6.778;2022-07-15T05:27:02;23.80;62.50
921;DHT22;447;51.332;6.778;2022-07-15T05:29:32;23.80;62.60
921;DHT22;447;51.332;6.778;2022-07-15T05:32:02;23.80;62.60
921;DHT22;447;51.332;6.778;2022-07-15T05:34:31;23.80;62.70
921;DHT22;447;51.332;6.778;2022-07-15T05:37:23;23.80;62.70
921;DHT22;447;51.332;6.778;2022-07-15T05:39:52;23.80;62.80
921;DHT22;447;51.332;6.778;2022-07-15T05:42:38;23.80;62.80
921;DHT22;447;51.332;6.778;2022-07-15T05:45:09;23.80;62.90
921;DHT22;447;51.332;6.778;2022-07-15T05:47:51;23.80;63.00
921;DHT22;447;51.332;6.778;2022-07-15T05:50:24;23.70;62.80
921;DHT22;447;51.332;6.778;2022-07-15T05:52:57;23.70;62.90
921;DHT22;447;51.332;6.778;2022-07-15T05:55:23;23.70;62.90
921;DHT22;447;51.332;6.778;2022-07-15T05:57:49;23.70;63.00
921;DHT22;447;51.332;6.778;2022-07-15T06:00:18;23.70;63.00
921;DHT22;447;51.332;6.778;2022-07-15T06:02:46;23.70;63.10
921;DHT22;447;51.332;6.778;2022-07-15T06:05:22;23.70;63.10
921;DHT22;447;51.332;6.778;2022-07-15T06:07:53;23.70;63.10
921;DHT22;447;51.332;6.778;2022-07-15T06:10:27;23.70;63.10
921;DHT22;447;51.332;6.778;2022-07-15T06:12:55;23.70;63.20
921;DHT22;447;51.332;6.778;2022-07-15T06:15:21;23.60;63.00
921;DHT22;447;51.332;6.778;2022-07-15T06:17:52;23.60;63.00
921;DHT22;447;51.332;6.778;2022-07-15T06:20:22;23.60;63.00
921;DHT22;447;51.332;6.778;2022-07-15T06:22:49;23.70;63.20
921;DHT22;447;51.332;6.778;2022-07-15T06:25:16;23.60;63.10
921;DHT22;447;51.332;6.778;2022-07-15T06:27:43;23.60;63.10
921;DHT22;447;51.332;6.778;2022-07-15T06:30:12;23.60;63.20
921;DHT22;447;51.332;6.778;2022-07-15T06:32:38;23.60;63.20
921;DHT22;447;51.332;6.778;2022-07-15T06:35:07;23.60;63.10
921;DHT22;447;51.332;6.778;2022-07-15T06:37:34;23.60;63.10
921;DHT22;447;51.332;6.778;2022-07-15T06:40:01;23.60;63.10
921;DHT22;447;51.332;6.778;2022-07-15T06:42:27;23.60;63.20
921;DHT22;447;51.332;6.778;2022-07-15T06:45:04;23.60;63.10
921;DHT22;447;51.332;6.778;2022-07-15T06:47:33;23.60;63.20
921;DHT22;447;51.332;6.778;2022-07-15T06:50:03;23.60;63.20
921;DHT22;447;51.332;6.778;2022-07-15T06:52:30;23.50;63.00
921;DHT22;447;51.332;6.778;2022-07-15T06:54:58;23.50;63.00
921;DHT22;447;51.332;6.778;2022-07-15T06:57:30;23.50;62.90
921;DHT22;447;51.332;6.778;2022-07-15T06:59:56;23.50;63.00
921;DHT22;447;51.332;6.778;2022-07-15T07:02:24;23.60;63.00
921;DHT22;447;51.332;6.778;2022-07-15T07:04:50;23.50;62.90
921;DHT22;447;51.332;6.778;2022-07-15T07:07:16;23.50;62.80
921;DHT22;447;51.332;6.778;2022-07-15T07:09:46;23.50;62.70
921;DHT22;447;51.332;6.778;2022-07-15T07:12:15;23.50;62.70
921;DHT22;447;51.332;6.778;2022-07-15T07:14:40;23.50;62.60
921;DHT22;447;51.332;6.778;2022-07-15T07:17:06;23.50;62.60
921;DHT22;447;51.332;6.778;2022-07-15T07:19:32;23.50;62.60
921;DHT22;447;51.332;6.778;2022-07-15T07:22:01;23.50;62.60
921;DHT22;447;51.332;6.778;2022-07-15T07:24:27;23.50;62.50
921;DHT22;447;51.332;6.778;2022-07-15T07:26:53;23.50;62.50
921;DHT22;447;51.332;6.778;2022-07-15T07:29:19;23.50;62.50
921;DHT22;447;51.332;6.778;2022-07-15T07:31:51;23.40;62.40
921;DHT22;447;51.332;6.778;2022-07-15T07:34:18;23.50;62.50
921;DHT22;447;51.332;6.778;2022-07-15T07:36:47;23.40;62.40
921;DHT22;447;51.332;6.778;2022-07-15T07:39:16;23.40;62.30
921;DHT22;447;51.332;6.778;2022-07-15T07:41:45;23.40;62.30
921;DHT22;447;51.332;6.778;2022-07-15T07:44:11;23.40;62.30
921;DHT22;447;51.332;6.778;2022-07-15T07:46:37;23.40;62.30
921;DHT22;447;51.332;6.778;2022-07-15T07:49:05;23.40;62.30
921;DHT22;447;51.332;6.778;2022-07-15T07:51:36;23.40;62.30
921;DHT22;447;51.332;6.778;2022-07-15T07:54:02;23.40;62.30
921;DHT22;447;51.332;6.778;2022-07-15T07:56:29;23.40;62.20
921;DHT22;447;51.332;6.778;2022-07-15T07:58:57;23.40;62.20
921;DHT22;447;51.332;6.778;2022-07-15T08:01:26;23.40;62.20
921;DHT22;447;51.332;6.778;2022-07-15T08:03:52;23.40;62.20
921;DHT22;447;51.332;6.778;2022-07-15T08:06:21;23.40;62.20
921;DHT22;447;51.332;6.778;2022-07-15T08:08:50;23.40;62.10
921;DHT22;447;51.332;6.778;2022-07-15T08:11:20;23.40;62.10
921;DHT22;447;51.332;6.778;2022-07-15T08:13:48;23.40;62.10
921;DHT22;447;51.332;6.778;2022-07-15T08:16:14;23.40;62.10
921;DHT22;447;51.332;6.778;2022-07-15T08:18:42;23.40;62.10
921;DHT22;447;51.332;6.778;2022-07-15T08:21:12;23.40;62.10
921;DHT22;447;51.332;6.778;2022-07-15T08:23:41;23.40;62.00
921;DHT22;447;51.332;6.778;2022-07-15T08:26:10;23.40;62.00
921;DHT22;447;51.332;6.778;2022-07-15T08:28:37;23.40;61.90
921;DHT22;447;51.332;6.778;2022-07-15T08:31:03;23.40;61.90
921;DHT22;447;51.332;6.778;2022-07-15T08:33:29;23.40;61.90
921;DHT22;447;51.332;6.778;2022-07-15T08:35:55;23.40;61.90
921;DHT22;447;51.332;6.778;2022-07-15T08:38:22;23.40;61.90
921;DHT22;447;51.332;6.778;2022-07-15T08:40:48;23.40;61.90
921;DHT22;447;51.332;6.778;2022-07-15T08:43:17;23.40;61.90
921;DHT22;447;51.332;6.778;2022-07-15T08:45:43;23.40;61.80
921;DHT22;447;51.332;6.778;2022-07-15T08:48:10;23.40;61.90
921;DHT22;447;51.332;6.778;2022-07-15T08:50:37;23.40;61.60
921;DHT22;447;51.332;6.778;2022-07-15T08:53:03;23.40;61.40
921;DHT22;447;51.332;6.778;2022-07-15T08:55:32;23.50;61.30
921;DHT22;447;51.332;6.778;2022-07-15T08:57:59;23.50;61.10
921;DHT22;447;51.332;6.778;2022-07-15T09:00:25;23.50;60.80
921;DHT22;447;51.332;6.778;2022-07-15T09:03:01;23.50;60.70
921;DHT22;447;51.332;6.778;2022-07-15T09:05:34;23.50;60.70
921;DHT22;447;51.332;6.778;2022-07-15T09:10:59;23.50;60.50
921;DHT22;447;51.332;6.778;2022-07-15T09:15:52;23.60;60.60
921;DHT22;447;51.332;6.778;2022-07-15T09:18:25;23.60;60.40
921;DHT22;447;51.332;6.778;2022-07-15T09:20:52;23.60;60.40
921;DHT22;447;51.332;6.778;2022-07-15T09:23:27;23.60;60.30
921;DHT22;447;51.332;6.778;2022-07-15T09:26:00;23.60;60.20
921;DHT22;447;51.332;6.778;2022-07-15T09:28:46;23.60;60.20
921;DHT22;447;51.332;6.778;2022-07-15T09:31:14;23.60;60.20
921;DHT22;447;51.332;6.778;2022-07-15T09:34:01;23.60;60.10
921;DHT22;447;51.332;6.778;2022-07-15T09:36:30;23.60;60.10
921;DHT22;447;51.332;6.778;2022-07-15T09:38:57;23.60;60.00
921;DHT22;447;51.332;6.778;2022-07-15T09:41:42;23.60;60.00
921;DHT22;447;51.332;6.778;2022-07-15T09:44:19;23.70;60.10
921;DHT22;447;51.332;6.778;2022-07-15T09:49:16;23.70;60.00
921;DHT22;447;51.332;6.778;2022-07-15T09:54:33;23.70;59.90
921;DHT22;447;51.332;6.778;2022-07-15T09:57:03;23.70;59.80
921;DHT22;447;51.332;6.778;2022-07-15T09:59:30;23.70;59.80
921;DHT22;447;51.332;6.778;2022-07-15T10:02:00;23.70;59.90
921;DHT22;447;51.332;6.778;2022-07-15T10:04:27;23.80;60.00
921;DHT22;447;51.332;6.778;2022-07-15T10:06:59;23.80;59.90
921;DHT22;447;51.332;6.778;2022-07-15T10:09:35;23.80;59.70
921;DHT22;447;51.332;6.778;2022-07-15T10:12:12;23.80;59.70
921;DHT22;447;51.332;6.778;2022-07-15T10:14:54;23.80;59.60
921;DHT22;447;51.332;6.778;2022-07-15T10:20:27;23.80;59.50
921;DHT22;447;51.332;6.778;2022-07-15T10:28:48;23.80;59.60
921;DHT22;447;51.332;6.778;2022-07-15T10:31:32;23.80;59.50
921;DHT22;447;51.332;6.778;2022-07-15T10:39:13;23.90;59.50
921;DHT22;447;51.332;6.778;2022-07-15T10:42:01;23.90;59.40
921;DHT22;447;51.332;6.778;2022-07-15T10:47:17;23.90;59.30
921;DHT22;447;51.332;6.778;2022-07-15T10:49:49;23.90;59.20
921;DHT22;447;51.332;6.778;2022-07-15T10:52:24;24.00;59.20
921;DHT22;447;51.332;6.778;2022-07-15T10:55:01;24.00;59.30
921;DHT22;447;51.332;6.778;2022-07-15T11:00:31;24.00;59.30
921;DHT22;447;51.332;6.778;2022-07-15T11:03:11;24.00;59.20
921;DHT22;447;51.332;6.778;2022-07-15T11:13:43;24.10;59.30
921;DHT22;447;51.332;6.778;2022-07-15T11:16:11;24.10;59.20
921;DHT22;447;51.332;6.778;2022-07-15T11:18:47;24.10;59.20
921;DHT22;447;51.332;6.778;2022-07-15T11:21:16;24.10;59.10
921;DHT22;447;51.332;6.778;2022-07-15T11:23:44;24.10;59.10
921;DHT22;447;51.332;6.778;2022-07-15T11:26:10;24.10;59.20
921;DHT22;447;51.332;6.778;2022-07-15T11:28:41;24.10;59.10
921;DHT22;447;51.332;6.778;2022-07-15T11:31:13;24.10;58.90
921;DHT22;447;51.332;6.778;2022-07-15T11:33:39;24.20;59.00
921;DHT22;447;51.332;6.778;2022-07-15T11:36:17;24.20;58.80
921;DHT22;447;51.332;6.778;2022-07-15T11:38:45;24.20;58.80
921;DHT22;447;51.332;6.778;2022-07-15T11:41:11;24.20;58.80
921;DHT22;447;51.332;6.778;2022-07-15T11:44:08;24.20;58.80
921;DHT22;447;51.332;6.778;2022-07-15T11:46:56;24.30;58.80
921;DHT22;447;51.332;6.778;2022-07-15T11:51:57;24.30;58.70
921;DHT22;447;51.332;6.778;2022-07-15T11:54:23;24.30;58.80
921;DHT22;447;51.332;6.778;2022-07-15T11:56:59;24.40;58.70
921;DHT22;447;51.332;6.778;2022-07-15T11:59:26;24.40;58.50
921;DHT22;447;51.332;6.778;2022-07-15T12:02:12;24.40;58.40
921;DHT22;447;51.332;6.778;2022-07-15T12:04:39;24.40;58.40
921;DHT22;447;51.332;6.778;2022-07-15T12:07:09;24.40;58.30
921;DHT22;447;51.332;6.778;2022-07-15T12:09:42;24.40;58.20
921;DHT22;447;51.332;6.778;2022-07-15T12:12:11;24.40;58.00
921;DHT22;447;51.332;6.778;2022-07-15T12:14:40;24.40;58.20
921;DHT22;447;51.332;6.778;2022-07-15T12:17:08;24.50;58.20
921;DHT22;447;51.332;6.778;2022-07-15T12:19:35;24.50;58.20
921;DHT22;447;51.332;6.778;2022-07-15T12:22:07;24.50;58.20
921;DHT22;447;51.332;6.778;2022-07-15T12:24:43;24.50;58.20
921;DHT22;447;51.332;6.778;2022-07-15T12:27:14;24.50;58.70
921;DHT22;447;51.332;6.778;2022-07-15T12:29:41;24.50;58.20
921;DHT22;447;51.332;6.778;2022-07-15T12:32:10;24.50;58.20
921;DHT22;447;51.332;6.778;2022-07-15T12:34:50;24.50;58.10
921;DHT22;447;51.332;6.778;2022-07-15T12:37:21;24.50;58.10
921;DHT22;447;51.332;6.778;2022-07-15T12:43:02;24.50;58.10
921;DHT22;447;51.332;6.778;2022-07-15T12:45:36;24.50;58.10
921;DHT22;447;51.332;6.778;2022-07-15T12:53:09;24.50;58.10
921;DHT22;447;51.332;6.778;2022-07-15T12:55:42;24.50;58.10
921;DHT22;447;51.332;6.778;2022-07-15T12:58:14;24.60;58.10
921;DHT22;447;51.332;6.778;2022-07-15T13:00:45;24.60;57.90
921;DHT22;447;51.332;6.778;2022-07-15T13:03:21;24.60;58.00
921;DHT22;447;51.332;6.778;2022-07-15T13:05:52;24.60;58.00
921;DHT22;447;51.332;6.778;2022-07-15T13:08:29;24.60;57.90
921;DHT22;447;51.332;6.778;2022-07-15T13:11:00;24.60;57.80
921;DHT22;447;51.332;6.778;2022-07-15T13:13:29;24.60;58.00
921;DHT22;447;51.332;6.778;2022-07-15T13:15:56;24.60;57.60
921;DHT22;447;51.332;6.778;2022-07-15T13:18:28;24.70;57.40
921;DHT22;447;51.332;6.778;2022-07-15T13:20:55;24.70;57.60
921;DHT22;447;51.332;6.778;2022-07-15T13:23:22;24.70;57.70
921;DHT22;447;51.332;6.778;2022-07-15T13:25:50;24.70;57.50
921;DHT22;447;51.332;6.778;2022-07-15T13:28:21;24.70;57.50
921;DHT22;447;51.332;6.778;2022-07-15T13:30:49;24.70;57.50
921;DHT22;447;51.332;6.778;2022-07-15T13:33:15;24.80;57.70
921;DHT22;447;51.332;6.778;2022-07-15T13:35:44;24.80;57.90
921;DHT22;447;51.332;6.778;2022-07-15T13:38:15;24.80;58.00
921;DHT22;447;51.332;6.778;2022-07-15T13:40:41;24.80;57.70
921;DHT22;447;51.332;6.778;2022-07-15T13:43:07;24.80;57.80
921;DHT22;447;51.332;6.778;2022-07-15T13:45:38;24.90;57.80
921;DHT22;447;51.332;6.778;2022-07-15T13:48:09;24.80;57.70
921;DHT22;447;51.332;6.778;2022-07-15T13:50:35;24.90;57.60
921;DHT22;447;51.332;6.778;2022-07-15T13:53:19;24.90;57.30
921;DHT22;447;51.332;6.778;2022-07-15T13:55:48;24.90;56.80
921;DHT22;447;51.332;6.778;2022-07-15T13:58:14;24.90;56.90
921;DHT22;447;51.332;6.778;2022-07-15T14:00:42;24.90;57.00
921;DHT22;447;51.332;6.778;2022-07-15T14:03:12;24.90;56.70
921;DHT22;447;51.332;6.778;2022-07-15T14:05:40;24.90;56.90
921;DHT22;447;51.332;6.778;2022-07-15T14:08:09;25.00;57.10
921;DHT22;447;51.332;6.778;2022-07-15T14:10:35;25.00;57.10
921;DHT22;447;51.332;6.778;2022-07-15T14:13:01;25.00;57.10
921;DHT22;447;51.332;6.778;2022-07-15T14:15:34;25.00;57.10
921;DHT22;447;51.332;6.778;2022-07-15T14:18:03;25.00;57.10
921;DHT22;447;51.332;6.778;2022-07-15T14:20:34;25.10;57.10
921;DHT22;447;51.332;6.778;2022-07-15T14:23:03;25.10;57.30
921;DHT22;447;51.332;6.778;2022-07-15T14:25:31;25.10;57.20
921;DHT22;447;51.332;6.778;2022-07-15T14:28:02;25.10;56.90
921;DHT22;447;51.332;6.778;2022-07-15T14:30:32;25.20;57.10
921;DHT22;447;51.332;6.778;2022-07-15T14:32:58;25.20;57.10
921;DHT22;447;51.332;6.778;2022-07-15T14:35:25;25.20;57.00
921;DHT22;447;51.332;6.778;2022-07-15T14:37:53;25.20;57.00
921;DHT22;447;51.332;6.778;2022-07-15T14:40:21;25.20;57.00
921;DHT22;447;51.332;6.778;2022-07-15T14:42:50;25.20;56.90
921;DHT22;447;51.332;6.778;2022-07-15T14:45:21;25.20;57.00
921;DHT22;447;51.332;6.778;2022-07-15T14:47:51;25.30;56.90
921;DHT22;447;51.332;6.778;2022-07-15T14:50:17;25.20;56.80
921;DHT22;447;51.332;6.778;2022-07-15T14:52:43;25.30;56.80
921;DHT22;447;51.332;6.778;2022-07-15T14:55:09;25.30;56.80
921;DHT22;447;51.332;6.778;2022-07-15T14:57:35;25.30;56.70
921;DHT22;447;51.332;6.778;2022-07-15T15:00:05;25.30;56.60
921;DHT22;447;51.332;6.778;2022-07-15T15:02:31;25.30;56.60
921;DHT22;447;51.332;6.778;2022-07-15T15:04:58;25.30;56.30
921;DHT22;447;51.332;6.778;2022-07-15T15:07:29;25.30;56.00
921;DHT22;447;51.332;6.778;2022-07-15T15:09:57;25.30;56.10
921;DHT22;447;51.332;6.778;2022-07-15T15:12:23;25.40;56.10
921;DHT22;447;51.332;6.778;2022-07-15T15:14:55;25.40;56.00
921;DHT22;447;51.332;6.778;2022-07-15T15:17:26;25.40;56.30
921;DHT22;447;51.332;6.778;2022-07-15T15:19:54;25.40;56.10
921;DHT22;447;51.332;6.778;2022-07-15T15:22:20;25.40;56.30
921;DHT22;447;51.332;6.778;2022-07-15T15:24:51;25.40;56.30
921;DHT22;447;51.332;6.778;2022-07-15T15:27:20;25.40;56.20
921;DHT22;447;51.332;6.778;2022-07-15T15:29:49;25.50;56.50
921;DHT22;447;51.332;6.778;2022-07-15T15:32:15;25.50;56.20
921;DHT22;447;51.332;6.778;2022-07-15T15:34:44;25.60;56.20
921;DHT22;447;51.332;6.778;2022-07-15T15:37:11;25.60;56.00
921;DHT22;447;51.332;6.778;2022-07-15T15:39:37;25.60;55.90
921;DHT22;447;51.332;6.778;2022-07-15T15:42:07;25.60;56.10
921;DHT22;447;51.332;6.778;2022-07-15T15:44:41;25.60;56.10
921;DHT22;447;51.332;6.778;2022-07-15T15:47:12;25.70;56.00
921;DHT22;447;51.332;6.778;2022-07-15T15:49:42;25.70;55.70
921;DHT22;447;51.332;6.778;2022-07-15T15:52:08;25.70;55.40
921;DHT22;447;51.332;6.778;2022-07-15T15:54:37;25.70;55.70
921;DHT22;447;51.332;6.778;2022-07-15T15:57:03;25.70;55.60
921;DHT22;447;51.332;6.778;2022-07-15T15:59:29;25.70;55.60
921;DHT22;447;51.332;6.778;2022-07-15T16:02:00;25.80;55.40
921;DHT22;447;51.332;6.778;2022-07-15T16:04:31;25.80;55.10
921;DHT22;447;51.332;6.778;2022-07-15T16:06:57;25.90;54.90
921;DHT22;447;51.332;6.778;2022-07-15T16:09:23;25.90;54.80
921;DHT22;447;51.332;6.778;2022-07-15T16:11:49;26.00;55.10
921;DHT22;447;51.332;6.778;2022-07-15T16:14:17;26.00;55.10
921;DHT22;447;51.332;6.778;2022-07-15T16:16:43;26.10;55.30
921;DHT22;447;51.332;6.778;2022-07-15T16:19:12;26.10;55.10
921;DHT22;447;51.332;6.778;2022-07-15T16:21:38;26.10;54.70
921;DHT22;447;51.332;6.778;2022-07-15T16:24:23;26.20;54.80
921;DHT22;447;51.332;6.778;2022-07-15T16:26:49;26.30;54.80
921;DHT22;447;51.332;6.778;2022-07-15T16:29:17;26.30;54.60
921;DHT22;447;51.332;6.778;2022-07-15T16:31:43;26.30;54.40
921;DHT22;447;51.332;6.778;2022-07-15T16:34:09;26.30;54.40
921;DHT22;447;51.332;6.778;2022-07-15T16:36:38;26.40;54.40
921;DHT22;447;51.332;6.778;2022-07-15T16:39:04;26.40;54.30
921;DHT22;447;51.332;6.778;2022-07-15T16:41:30;26.40;54.30
921;DHT22;447;51.332;6.778;2022-07-15T16:43:58;26.50;54.50
921;DHT22;447;51.332;6.778;2022-07-15T16:46:26;26.50;54.60
921;DHT22;447;51.332;6.778;2022-07-15T16:48:52;26.60;54.70
921;DHT22;447;51.332;6.778;2022-07-15T16:51:21;26.60;54.80
921;DHT22;447;51.332;6.778;2022-07-15T16:53:49;26.70;54.80
921;DHT22;447;51.332;6.778;2022-07-15T16:56:18;26.70;54.70
921;DHT22;447;51.332;6.778;2022-07-15T16:58:46;26.70;54.60
921;DHT22;447;51.332;6.778;2022-07-15T17:01:16;26.80;54.60
921;DHT22;447;51.332;6.778;2022-07-15T17:03:44;26.80;54.30
921;DHT22;447;51.332;6.778;2022-07-15T17:06:12;26.80;54.40
921;DHT22;447;51.332;6.778;2022-07-15T17:08:39;26.90;54.70
921;DHT22;447;51.332;6.778;2022-07-15T17:11:05;26.90;54.70
921;DHT22;447;51.332;6.778;2022-07-15T17:13:33;26.90;54.80
921;DHT22;447;51.332;6.778;2022-07-15T17:15:59;26.90;54.20
921;DHT22;447;51.332;6.778;2022-07-15T17:18:28;26.90;53.80
921;DHT22;447;51.332;6.778;2022-07-15T17:20:54;26.90;53.30
921;DHT22;447;51.332;6.778;2022-07-15T17:23:29;26.80;53.10
921;DHT22;447;51.332;6.778;2022-07-15T17:25:57;26.90;53.10
921;DHT22;447;51.332;6.778;2022-07-15T17:28:23;26.80;53.10
921;DHT22;447;51.332;6.778;2022-07-15T17:31:15;26.80;53.20
921;DHT22;447;51.332;6.778;2022-07-15T17:33:41;26.80;53.20
921;DHT22;447;51.332;6.778;2022-07-15T17:36:07;26.80;53.10
921;DHT22;447;51.332;6.778;2022-07-15T17:38:34;26.70;53.00